Apison, Tennessee
Current Conditions -  °F | °C
As of 7:53 PM on Wednesday 17 Dec 2014 (Local Time) from KCHA Reporting Station
Broken Clouds Broken Clouds  
Wind Chill:   Ceiling: 22000
Heat Index:   Visibility: 10mi
Dew Point:   Wind: 6mph
Humidity: 77%   Direction: 340°NNW
Pressure: 30.23"   Gusts: NA
Location:  35.02°N, 85.02°W
Report Text: KCHA 180053Z 34005KT 10SM BKN220 04/01 A3023 RMK AO2 SLP237 T00440006
Loading
Personal Weather Stations






























Interactive Weather Map New forecast layout! Learn more

10-Day Weather Forecast

Advertisements
Track Severe Weather on mobile